sensor_id;sensor_type;location;lat;lon;timestamp;pressure;altitude;pressure_sealevel;temperature;humidity
6530;BME280;3298;42.688;23.366;2023-03-30T00:01:02;51694.56;;;-145.06;41.83
6530;BME280;3298;42.688;23.366;2023-03-30T00:03:29;51700.72;;;-145.06;41.56
6530;BME280;3298;42.688;23.366;2023-03-30T00:06:02;51708.91;;;-145.06;41.63
6530;BME280;3298;42.688;23.366;2023-03-30T00:08:30;51692.53;;;-145.06;41.85
6530;BME280;3298;42.688;23.366;2023-03-30T00:11:01;51690.47;;;-145.06;41.50
6530;BME280;3298;42.688;23.366;2023-03-30T00:13:31;51700.72;;;-145.06;41.73
6530;BME280;3298;42.688;23.366;2023-03-30T00:15:58;51719.13;;;-145.06;41.68
6530;BME280;3298;42.688;23.366;2023-03-30T00:18:24;51735.50;;;-145.06;41.75
6530;BME280;3298;42.688;23.366;2023-03-30T00:20:52;51713.00;;;-145.06;41.70
6530;BME280;3298;42.688;23.366;2023-03-30T00:23:19;51682.28;;;-145.06;41.85
6530;BME280;3298;42.688;23.366;2023-03-30T00:25:46;51692.53;;;-145.06;41.64
6530;BME280;3298;42.688;23.366;2023-03-30T00:28:13;51676.16;;;-145.06;41.90
6530;BME280;3298;42.688;23.366;2023-03-30T00:30:41;51678.19;;;-145.06;41.61
6530;BME280;3298;42.688;23.366;2023-03-30T00:33:08;51723.22;;;-145.06;41.82
6530;BME280;3298;42.688;23.366;2023-03-30T00:35:35;51694.56;;;-145.06;41.81
6530;BME280;3298;42.688;23.366;2023-03-30T00:38:02;51702.75;;;-145.06;41.92
6530;BME280;3298;42.688;23.366;2023-03-30T00:40:31;51672.06;;;-145.06;42.23
6530;BME280;3298;42.688;23.366;2023-03-30T00:42:58;51715.03;;;-145.06;42.50
6530;BME280;3298;42.688;23.366;2023-03-30T00:45:27;51680.25;;;-145.06;42.77
6530;BME280;3298;42.688;23.366;2023-03-30T00:47:59;51684.34;;;-145.06;43.39
6530;BME280;3298;42.688;23.366;2023-03-30T00:50:31;51670.00;;;-145.06;44.05
6530;BME280;3298;42.688;23.366;2023-03-30T00:53:02;51713.00;;;-145.06;44.28
6530;BME280;3298;42.688;23.366;2023-03-30T00:55:32;51672.06;;;-145.06;44.61
6530;BME280;3298;42.688;23.366;2023-03-30T00:58:01;51678.19;;;-145.06;44.80
6530;BME280;3298;42.688;23.366;2023-03-30T01:00:28;51700.72;;;-145.06;44.78
6530;BME280;3298;42.688;23.366;2023-03-30T01:03:00;51680.25;;;-145.06;44.79
6530;BME280;3298;42.688;23.366;2023-03-30T01:05:28;51798.97;;;-145.06;45.30
6530;BME280;3298;42.688;23.366;2023-03-30T01:07:57;51702.75;;;-145.06;45.14
6530;BME280;3298;42.688;23.366;2023-03-30T01:10:25;51688.44;;;-145.06;45.56
6530;BME280;3298;42.688;23.366;2023-03-30T01:12:52;51700.72;;;-145.06;45.11
6530;BME280;3298;42.688;23.366;2023-03-30T01:15:19;51686.38;;;-145.06;45.42
6530;BME280;3298;42.688;23.366;2023-03-30T01:18:05;51700.72;;;-145.06;45.53
6530;BME280;3298;42.688;23.366;2023-03-30T01:21:07;51700.72;;;-145.06;45.87
6530;BME280;3298;42.688;23.366;2023-03-30T01:24:19;51700.72;;;-145.06;45.59
6530;BME280;3298;42.688;23.366;2023-03-30T01:26:55;51690.47;;;-145.06;45.82
6530;BME280;3298;42.688;23.366;2023-03-30T01:29:37;51684.34;;;-145.06;46.37
6530;BME280;3298;42.688;23.366;2023-03-30T01:32:28;51682.28;;;-145.06;46.58
6530;BME280;3298;42.688;23.366;2023-03-30T01:38:24;51696.63;;;-145.06;46.33
6530;BME280;3298;42.688;23.366;2023-03-30T01:41:07;51704.81;;;-145.06;45.95
6530;BME280;3298;42.688;23.366;2023-03-30T01:43:44;51684.34;;;-145.06;46.61
6530;BME280;3298;42.688;23.366;2023-03-30T01:46:16;51696.63;;;-145.06;46.23
6530;BME280;3298;42.688;23.366;2023-03-30T01:48:55;51713.00;;;-145.06;46.33
6530;BME280;3298;42.688;23.366;2023-03-30T01:51:26;51684.34;;;-145.06;46.00
6530;BME280;3298;42.688;23.366;2023-03-30T01:53:59;51676.16;;;-145.06;46.55
6530;BME280;3298;42.688;23.366;2023-03-30T01:56:35;51686.38;;;-145.06;46.60
6530;BME280;3298;42.688;23.366;2023-03-30T01:59:09;51676.16;;;-145.06;46.60
6530;BME280;3298;42.688;23.366;2023-03-30T02:01:39;51672.06;;;-145.06;47.18
6530;BME280;3298;42.688;23.366;2023-03-30T02:04:15;51700.72;;;-145.06;47.08
6530;BME280;3298;42.688;23.366;2023-03-30T02:06:47;51688.44;;;-145.06;47.28
6530;BME280;3298;42.688;23.366;2023-03-30T02:09:16;51688.44;;;-145.06;47.31
6530;BME280;3298;42.688;23.366;2023-03-30T02:11:48;51663.88;;;-145.06;47.33
6530;BME280;3298;42.688;23.366;2023-03-30T02:14:16;51694.56;;;-145.06;47.53
6530;BME280;3298;42.688;23.366;2023-03-30T02:16:46;51696.63;;;-145.06;47.37
6530;BME280;3298;42.688;23.366;2023-03-30T02:19:13;51688.44;;;-145.06;47.57
6530;BME280;3298;42.688;23.366;2023-03-30T02:21:41;51696.63;;;-145.06;47.38
6530;BME280;3298;42.688;23.366;2023-03-30T02:24:11;51704.81;;;-145.06;47.27
6530;BME280;3298;42.688;23.366;2023-03-30T02:26:43;51670.00;;;-145.06;47.16
6530;BME280;3298;42.688;23.366;2023-03-30T02:29:12;51698.66;;;-145.06;47.44
6530;BME280;3298;42.688;23.366;2023-03-30T02:31:40;51680.25;;;-145.06;47.47
6530;BME280;3298;42.688;23.366;2023-03-30T02:34:13;51674.09;;;-145.06;47.81
6530;BME280;3298;42.688;23.366;2023-03-30T02:37:04;51704.81;;;-145.06;47.88
6530;BME280;3298;42.688;23.366;2023-03-30T02:39:43;51700.72;;;-145.06;48.30
6530;BME280;3298;42.688;23.366;2023-03-30T02:42:29;51684.34;;;-145.06;48.16
6530;BME280;3298;42.688;23.366;2023-03-30T02:45:09;51690.47;;;-145.06;48.64
6530;BME280;3298;42.688;23.366;2023-03-30T02:47:45;51700.72;;;-145.06;48.61
6530;BME280;3298;42.688;23.366;2023-03-30T02:50:21;51680.25;;;-145.06;49.07
6530;BME280;3298;42.688;23.366;2023-03-30T02:52:53;51692.53;;;-145.06;49.47
6530;BME280;3298;42.688;23.366;2023-03-30T02:55:25;51686.38;;;-145.06;49.34
6530;BME280;3298;42.688;23.366;2023-03-30T02:58:02;51672.06;;;-145.06;49.68
6530;BME280;3298;42.688;23.366;2023-03-30T03:00:37;51684.34;;;-145.06;49.76
6530;BME280;3298;42.688;23.366;2023-03-30T03:03:12;51678.19;;;-145.06;49.89
6530;BME280;3298;42.688;23.366;2023-03-30T03:05:41;51676.16;;;-145.06;50.46
6530;BME280;3298;42.688;23.366;2023-03-30T03:08:12;51713.00;;;-145.06;50.16
6530;BME280;3298;42.688;23.366;2023-03-30T03:10:39;51708.91;;;-145.06;50.23
6530;BME280;3298;42.688;23.366;2023-03-30T03:13:07;51700.72;;;-145.06;50.65
6530;BME280;3298;42.688;23.366;2023-03-30T03:15:36;51659.78;;;-145.06;50.74
6530;BME280;3298;42.688;23.366;2023-03-30T03:18:03;51708.91;;;-145.06;51.16
6530;BME280;3298;42.688;23.366;2023-03-30T03:20:30;51706.84;;;-145.06;51.13
6530;BME280;3298;42.688;23.366;2023-03-30T03:22:57;51723.22;;;-145.06;51.15
6530;BME280;3298;42.688;23.366;2023-03-30T03:25:23;51696.63;;;-145.06;51.30
6530;BME280;3298;42.688;23.366;2023-03-30T03:27:51;51678.19;;;-145.06;51.36
6530;BME280;3298;42.688;23.366;2023-03-30T03:30:18;51721.19;;;-145.06;51.59
6530;BME280;3298;42.688;23.366;2023-03-30T03:32:47;51735.50;;;-145.06;51.63
6530;BME280;3298;42.688;23.366;2023-03-30T03:35:14;51684.34;;;-145.06;52.19
6530;BME280;3298;42.688;23.366;2023-03-30T03:37:41;51692.53;;;-145.06;52.07
6530;BME280;3298;42.688;23.366;2023-03-30T03:40:09;51706.84;;;-145.06;52.22
6530;BME280;3298;42.688;23.366;2023-03-30T03:42:36;51676.16;;;-145.06;52.56
6530;BME280;3298;42.688;23.366;2023-03-30T03:45:04;51715.03;;;-145.06;52.66
6530;BME280;3298;42.688;23.366;2023-03-30T03:47:32;51696.63;;;-145.06;53.46
6530;BME280;3298;42.688;23.366;2023-03-30T03:50:01;51696.63;;;-145.06;54.07
6530;BME280;3298;42.688;23.366;2023-03-30T03:52:31;51700.72;;;-145.06;54.54
6530;BME280;3298;42.688;23.366;2023-03-30T03:54:58;51700.72;;;-145.06;54.71
6530;BME280;3298;42.688;23.366;2023-03-30T03:57:25;51700.72;;;-145.06;55.15
6530;BME280;3298;42.688;23.366;2023-03-30T03:59:52;51672.06;;;-145.06;54.93
6530;BME280;3298;42.688;23.366;2023-03-30T04:02:20;51676.16;;;-145.06;55.64
6530;BME280;3298;42.688;23.366;2023-03-30T04:04:47;51688.44;;;-145.06;55.35
6530;BME280;3298;42.688;23.366;2023-03-30T04:07:16;51700.72;;;-145.06;55.64
6530;BME280;3298;42.688;23.366;2023-03-30T04:09:42;51686.38;;;-145.06;55.43
6530;BME280;3298;42.688;23.366;2023-03-30T04:12:09;51696.63;;;-145.06;55.35
6530;BME280;3298;42.688;23.366;2023-03-30T04:14:36;51684.34;;;-145.06;55.55
6530;BME280;3298;42.688;23.366;2023-03-30T04:17:03;51688.44;;;-145.06;55.66
6530;BME280;3298;42.688;23.366;2023-03-30T04:19:30;51702.75;;;-145.06;56.08
6530;BME280;3298;42.688;23.366;2023-03-30T04:21:57;51692.53;;;-145.06;56.12
6530;BME280;3298;42.688;23.366;2023-03-30T04:24:25;51692.53;;;-145.06;56.45
6530;BME280;3298;42.688;23.366;2023-03-30T04:26:54;51690.47;;;-145.06;56.41
6530;BME280;3298;42.688;23.366;2023-03-30T04:29:22;51667.97;;;-145.06;56.66
6530;BME280;3298;42.688;23.366;2023-03-30T04:31:49;51688.44;;;-145.06;56.39
6530;BME280;3298;42.688;23.366;2023-03-30T04:34:16;51672.06;;;-145.06;56.68
6530;BME280;3298;42.688;23.366;2023-03-30T04:36:46;51678.19;;;-145.06;56.48
6530;BME280;3298;42.688;23.366;2023-03-30T04:39:13;51717.09;;;-145.06;55.64
6530;BME280;3298;42.688;23.366;2023-03-30T04:41:44;51696.63;;;-145.06;55.85
6530;BME280;3298;42.688;23.366;2023-03-30T04:44:11;51682.28;;;-145.06;56.07
6530;BME280;3298;42.688;23.366;2023-03-30T04:46:38;51704.81;;;-145.06;55.92
6530;BME280;3298;42.688;23.366;2023-03-30T04:49:05;51708.91;;;-145.06;55.62
6530;BME280;3298;42.688;23.366;2023-03-30T04:51:32;51682.28;;;-145.06;55.59
6530;BME280;3298;42.688;23.366;2023-03-30T04:53:59;51674.09;;;-145.06;55.26
6530;BME280;3298;42.688;23.366;2023-03-30T04:56:26;51717.09;;;-145.06;55.03
6530;BME280;3298;42.688;23.366;2023-03-30T04:58:54;51698.66;;;-145.06;54.98
6530;BME280;3298;42.688;23.366;2023-03-30T05:01:21;51678.19;;;-145.06;55.24
6530;BME280;3298;42.688;23.366;2023-03-30T05:03:48;51694.56;;;-145.06;55.01
6530;BME280;3298;42.688;23.366;2023-03-30T05:06:15;51672.06;;;-145.06;55.18
6530;BME280;3298;42.688;23.366;2023-03-30T05:08:42;51708.91;;;-145.06;55.03
6530;BME280;3298;42.688;23.366;2023-03-30T05:11:09;51680.25;;;-145.06;55.17
6530;BME280;3298;42.688;23.366;2023-03-30T05:13:36;51696.63;;;-145.06;55.49
6530;BME280;3298;42.688;23.366;2023-03-30T05:16:07;51663.88;;;-145.06;55.54
6530;BME280;3298;42.688;23.366;2023-03-30T05:18:34;51672.06;;;-145.06;55.10
6530;BME280;3298;42.688;23.366;2023-03-30T05:21:03;51694.56;;;-145.06;55.22
6530;BME280;3298;42.688;23.366;2023-03-30T05:23:30;51680.25;;;-145.06;55.72
6530;BME280;3298;42.688;23.366;2023-03-30T05:25:56;51672.06;;;-145.06;56.26
6530;BME280;3298;42.688;23.366;2023-03-30T05:28:23;51682.28;;;-145.06;56.11
6530;BME280;3298;42.688;23.366;2023-03-30T05:30:52;51672.06;;;-145.06;55.99
6530;BME280;3298;42.688;23.366;2023-03-30T05:33:21;51706.84;;;-145.06;56.65
6530;BME280;3298;42.688;23.366;2023-03-30T05:35:48;51717.09;;;-145.06;57.34
6530;BME280;3298;42.688;23.366;2023-03-30T05:38:16;51684.34;;;-145.06;57.78
6530;BME280;3298;42.688;23.366;2023-03-30T05:40:43;51715.03;;;-145.06;58.31
6530;BME280;3298;42.688;23.366;2023-03-30T05:43:10;51741.66;;;-145.06;58.53
6530;BME280;3298;42.688;23.366;2023-03-30T05:45:37;51700.72;;;-145.06;59.26
6530;BME280;3298;42.688;23.366;2023-03-30T05:48:04;51663.88;;;-145.06;59.50
6530;BME280;3298;42.688;23.366;2023-03-30T05:50:33;51684.34;;;-145.06;59.54
6530;BME280;3298;42.688;23.366;2023-03-30T05:53:00;51700.72;;;-145.06;59.68
6530;BME280;3298;42.688;23.366;2023-03-30T05:55:27;51729.38;;;-145.06;59.85
6530;BME280;3298;42.688;23.366;2023-03-30T05:57:54;51729.38;;;-145.06;59.71
6530;BME280;3298;42.688;23.366;2023-03-30T06:00:22;51692.53;;;-145.06;59.66
6530;BME280;3298;42.688;23.366;2023-03-30T06:02:50;51688.44;;;-145.06;60.13
6530;BME280;3298;42.688;23.366;2023-03-30T06:05:17;51698.66;;;-145.06;59.58
6530;BME280;3298;42.688;23.366;2023-03-30T06:07:45;51784.63;;;-145.06;59.87
6530;BME280;3298;42.688;23.366;2023-03-30T06:10:12;51678.19;;;-145.06;60.08
6530;BME280;3298;42.688;23.366;2023-03-30T06:12:41;51696.63;;;-145.06;60.42
6530;BME280;3298;42.688;23.366;2023-03-30T06:15:09;51680.25;;;-145.06;60.74
6530;BME280;3298;42.688;23.366;2023-03-30T06:17:36;51688.44;;;-145.06;60.57
6530;BME280;3298;42.688;23.366;2023-03-30T06:20:04;51684.34;;;-145.06;60.20
6530;BME280;3298;42.688;23.366;2023-03-30T06:22:35;51723.22;;;-145.06;59.74
6530;BME280;3298;42.688;23.366;2023-03-30T06:25:04;51700.72;;;-145.06;59.53
6530;BME280;3298;42.688;23.366;2023-03-30T06:27:31;51725.28;;;-145.06;60.06
6530;BME280;3298;42.688;23.366;2023-03-30T06:29:58;51686.38;;;-145.06;59.93
6530;BME280;3298;42.688;23.366;2023-03-30T06:32:25;51704.81;;;-145.06;60.37
6530;BME280;3298;42.688;23.366;2023-03-30T06:34:52;51643.41;;;-145.06;60.74
6530;BME280;3298;42.688;23.366;2023-03-30T06:37:19;51676.16;;;-145.06;60.34
6530;BME280;3298;42.688;23.366;2023-03-30T06:39:46;51715.03;;;-145.06;60.32
6530;BME280;3298;42.688;23.366;2023-03-30T06:42:14;51723.22;;;-145.06;59.53
6530;BME280;3298;42.688;23.366;2023-03-30T06:44:41;51678.19;;;-145.06;59.62
6530;BME280;3298;42.688;23.366;2023-03-30T06:47:11;51717.09;;;-145.06;59.31
6530;BME280;3298;42.688;23.366;2023-03-30T06:49:37;51688.44;;;-145.06;58.78
6530;BME280;3298;42.688;23.366;2023-03-30T06:52:05;51715.03;;;-145.06;58.86
6530;BME280;3298;42.688;23.366;2023-03-30T06:54:32;51659.78;;;-145.06;58.66
6530;BME280;3298;42.688;23.366;2023-03-30T06:56:58;51698.66;;;-145.06;58.54
6530;BME280;3298;42.688;23.366;2023-03-30T06:59:27;51696.63;;;-145.06;58.22
6530;BME280;3298;42.688;23.366;2023-03-30T07:01:53;51717.09;;;-145.06;57.77
6530;BME280;3298;42.688;23.366;2023-03-30T07:04:20;51696.63;;;-145.06;56.95
6530;BME280;3298;42.688;23.366;2023-03-30T07:06:47;51680.25;;;-145.06;56.42
6530;BME280;3298;42.688;23.366;2023-03-30T07:09:14;51682.28;;;-145.06;55.93
6530;BME280;3298;42.688;23.366;2023-03-30T07:11:41;51686.38;;;-145.06;57.21
6530;BME280;3298;42.688;23.366;2023-03-30T07:14:08;51700.72;;;-145.06;57.74
6530;BME280;3298;42.688;23.366;2023-03-30T07:16:39;51690.47;;;-145.06;56.11
6530;BME280;3298;42.688;23.366;2023-03-30T07:19:06;51684.34;;;-145.06;55.90
6530;BME280;3298;42.688;23.366;2023-03-30T07:21:34;51706.84;;;-145.06;55.68
6530;BME280;3298;42.688;23.366;2023-03-30T07:24:01;51708.91;;;-145.06;54.98
6530;BME280;3298;42.688;23.366;2023-03-30T07:26:28;51692.53;;;-145.06;54.51
6530;BME280;3298;42.688;23.366;2023-03-30T07:28:55;51717.09;;;-145.06;54.18
6530;BME280;3298;42.688;23.366;2023-03-30T07:31:23;51749.84;;;-145.06;53.79
6530;BME280;3298;42.688;23.366;2023-03-30T07:33:51;51717.09;;;-145.06;53.32
6530;BME280;3298;42.688;23.366;2023-03-30T07:36:18;51721.19;;;-145.06;52.65
6530;BME280;3298;42.688;23.366;2023-03-30T07:38:45;51721.19;;;-145.06;52.16
6530;BME280;3298;42.688;23.366;2023-03-30T07:41:13;51692.53;;;-145.06;52.00
6530;BME280;3298;42.688;23.366;2023-03-30T07:43:41;51704.81;;;-145.06;52.20
6530;BME280;3298;42.688;23.366;2023-03-30T07:46:08;51690.47;;;-145.06;52.19
6530;BME280;3298;42.688;23.366;2023-03-30T07:48:36;51721.19;;;-145.06;50.81
6530;BME280;3298;42.688;23.366;2023-03-30T07:51:06;51700.72;;;-145.06;50.34
6530;BME280;3298;42.688;23.366;2023-03-30T07:53:34;51680.25;;;-145.06;49.82
6530;BME280;3298;42.688;23.366;2023-03-30T07:56:01;51713.00;;;-145.06;49.92
6530;BME280;3298;42.688;23.366;2023-03-30T07:58:27;51733.47;;;-145.06;49.52
6530;BME280;3298;42.688;23.366;2023-03-30T08:00:54;51729.38;;;-145.06;48.82
6530;BME280;3298;42.688;23.366;2023-03-30T08:03:21;51713.00;;;-145.06;48.90
6530;BME280;3298;42.688;23.366;2023-03-30T08:05:53;51710.94;;;-145.06;48.98
6530;BME280;3298;42.688;23.366;2023-03-30T08:08:21;51713.00;;;-145.06;48.69
6530;BME280;3298;42.688;23.366;2023-03-30T08:10:48;51727.31;;;-145.06;48.13
6530;BME280;3298;42.688;23.366;2023-03-30T08:13:15;51731.41;;;-145.06;48.25
6530;BME280;3298;42.688;23.366;2023-03-30T08:15:42;51696.63;;;-145.06;48.14
6530;BME280;3298;42.688;23.366;2023-03-30T08:18:09;51737.56;;;-145.06;47.25
6530;BME280;3298;42.688;23.366;2023-03-30T08:20:38;51723.22;;;-145.06;46.99
6530;BME280;3298;42.688;23.366;2023-03-30T08:23:06;51727.31;;;-145.06;47.65
6530;BME280;3298;42.688;23.366;2023-03-30T08:25:34;51721.19;;;-145.06;46.94
6530;BME280;3298;42.688;23.366;2023-03-30T08:28:02;51717.09;;;-145.06;46.15
6530;BME280;3298;42.688;23.366;2023-03-30T08:30:30;51766.22;;;-145.06;46.16
6530;BME280;3298;42.688;23.366;2023-03-30T08:32:57;51661.81;;;-145.06;46.11
6530;BME280;3298;42.688;23.366;2023-03-30T08:35:23;51725.28;;;-145.06;46.42
6530;BME280;3298;42.688;23.366;2023-03-30T08:37:50;51743.69;;;-145.06;46.09
6530;BME280;3298;42.688;23.366;2023-03-30T08:40:18;51717.09;;;-145.06;45.63
6530;BME280;3298;42.688;23.366;2023-03-30T08:43:21;51747.78;;;-145.06;45.54
6530;BME280;3298;42.688;23.366;2023-03-30T08:45:51;51725.28;;;-145.06;45.17
6530;BME280;3298;42.688;23.366;2023-03-30T08:48:19;51713.00;;;-145.06;44.99
6530;BME280;3298;42.688;23.366;2023-03-30T08:50:53;51737.56;;;-145.06;44.92
6530;BME280;3298;42.688;23.366;2023-03-30T08:53:21;51723.22;;;-145.06;44.97
6530;BME280;3298;42.688;23.366;2023-03-30T08:55:50;51747.78;;;-145.06;45.22
6530;BME280;3298;42.688;23.366;2023-03-30T08:58:26;51713.00;;;-145.06;45.47
6530;BME280;3298;42.688;23.366;2023-03-30T09:01:14;51717.09;;;-145.06;45.68
6530;BME280;3298;42.688;23.366;2023-03-30T09:03:57;51741.66;;;-145.06;45.19
6530;BME280;3298;42.688;23.366;2023-03-30T09:06:36;51704.81;;;-145.06;45.45
6530;BME280;3298;42.688;23.366;2023-03-30T09:09:08;51725.28;;;-145.06;44.23
6530;BME280;3298;42.688;23.366;2023-03-30T09:11:37;51739.59;;;-145.06;44.80
6530;BME280;3298;42.688;23.366;2023-03-30T09:14:11;51713.00;;;-145.06;44.48
6530;BME280;3298;42.688;23.366;2023-03-30T09:16:45;51704.81;;;-145.06;43.91
6530;BME280;3298;42.688;23.366;2023-03-30T09:19:18;51717.09;;;-145.06;43.96
6530;BME280;3298;42.688;23.366;2023-03-30T09:21:48;51729.38;;;-145.06;43.36
6530;BME280;3298;42.688;23.366;2023-03-30T09:24:22;51717.09;;;-145.06;43.23
6530;BME280;3298;42.688;23.366;2023-03-30T09:26:53;51735.50;;;-145.06;42.76
6530;BME280;3298;42.688;23.366;2023-03-30T09:29:27;51760.06;;;-145.06;43.33
6530;BME280;3298;42.688;23.366;2023-03-30T09:32:02;51700.72;;;-145.06;42.96
6530;BME280;3298;42.688;23.366;2023-03-30T09:34:36;51717.09;;;-145.06;43.18
6530;BME280;3298;42.688;23.366;2023-03-30T09:37:09;51696.63;;;-145.06;43.85
6530;BME280;3298;42.688;23.366;2023-03-30T09:39:37;51735.50;;;-145.06;43.65
6530;BME280;3298;42.688;23.366;2023-03-30T09:42:21;51870.59;;;-145.06;42.53
6530;BME280;3298;42.688;23.366;2023-03-30T09:44:55;51725.28;;;-145.06;42.65
6530;BME280;3298;42.688;23.366;2023-03-30T09:47:24;51710.94;;;-145.06;42.92
6530;BME280;3298;42.688;23.366;2023-03-30T09:49:54;51729.38;;;-145.06;43.16
6530;BME280;3298;42.688;23.366;2023-03-30T09:52:23;51735.50;;;-145.06;43.15
6530;BME280;3298;42.688;23.366;2023-03-30T09:54:51;51749.84;;;-145.06;42.21
6530;BME280;3298;42.688;23.366;2023-03-30T09:57:24;51749.84;;;-145.06;41.19
6530;BME280;3298;42.688;23.366;2023-03-30T09:59:53;51733.47;;;-145.06;40.27
6530;BME280;3298;42.688;23.366;2023-03-30T10:02:22;51729.38;;;-145.06;39.81
6530;BME280;3298;42.688;23.366;2023-03-30T10:05:00;51741.66;;;-145.06;39.63
6530;BME280;3298;42.688;23.366;2023-03-30T10:07:30;51766.22;;;-145.06;39.56
6530;BME280;3298;42.688;23.366;2023-03-30T10:09:59;51729.38;;;-145.06;40.07
6530;BME280;3298;42.688;23.366;2023-03-30T10:12:27;51731.41;;;-145.06;40.16
6530;BME280;3298;42.688;23.366;2023-03-30T10:15:00;51725.28;;;-145.06;40.06
6530;BME280;3298;42.688;23.366;2023-03-30T10:17:29;51708.91;;;-145.06;40.63
6530;BME280;3298;42.688;23.366;2023-03-30T10:20:21;51764.16;;;-145.06;40.59
6530;BME280;3298;42.688;23.366;2023-03-30T10:22:50;51715.03;;;-145.06;41.17
6530;BME280;3298;42.688;23.366;2023-03-30T10:25:19;51704.81;;;-145.06;40.62
6530;BME280;3298;42.688;23.366;2023-03-30T10:27:50;51745.75;;;-145.06;40.30
6530;BME280;3298;42.688;23.366;2023-03-30T10:30:23;51741.66;;;-145.06;39.57
6530;BME280;3298;42.688;23.366;2023-03-30T10:32:52;51725.28;;;-145.06;39.81
6530;BME280;3298;42.688;23.366;2023-03-30T10:35:21;51747.78;;;-145.06;39.90
6530;BME280;3298;42.688;23.366;2023-03-30T10:37:51;51723.22;;;-145.06;39.94
6530;BME280;3298;42.688;23.366;2023-03-30T10:40:20;51743.69;;;-145.06;40.15
6530;BME280;3298;42.688;23.366;2023-03-30T10:42:52;51751.88;;;-145.06;39.70
6530;BME280;3298;42.688;23.366;2023-03-30T10:45:26;51729.38;;;-145.06;40.51
6530;BME280;3298;42.688;23.366;2023-03-30T10:48:08;51782.59;;;-145.06;40.21
6530;BME280;3298;42.688;23.366;2023-03-30T10:50:47;51764.16;;;-145.06;40.18
6530;BME280;3298;42.688;23.366;2023-03-30T10:53:24;51749.84;;;-145.06;40.46
6530;BME280;3298;42.688;23.366;2023-03-30T10:56:01;51713.00;;;-145.06;40.12
6530;BME280;3298;42.688;23.366;2023-03-30T10:58:49;51745.75;;;-145.06;40.09
6530;BME280;3298;42.688;23.366;2023-03-30T11:01:26;51745.75;;;-145.06;40.06
6530;BME280;3298;42.688;23.366;2023-03-30T11:03:58;51727.31;;;-145.06;39.82
6530;BME280;3298;42.688;23.366;2023-03-30T11:06:30;51741.66;;;-145.06;39.86
6530;BME280;3298;42.688;23.366;2023-03-30T11:09:00;51747.78;;;-145.06;36.31
6530;BME280;3298;42.688;23.366;2023-03-30T11:11:30;51743.69;;;-145.06;37.37
6530;BME280;3298;42.688;23.366;2023-03-30T11:14:01;51715.03;;;-145.06;38.61
6530;BME280;3298;42.688;23.366;2023-03-30T11:16:37;51741.66;;;-145.06;38.79
6530;BME280;3298;42.688;23.366;2023-03-30T11:19:11;51743.69;;;-145.06;38.37
6530;BME280;3298;42.688;23.366;2023-03-30T11:21:45;51737.56;;;-145.06;38.63
6530;BME280;3298;42.688;23.366;2023-03-30T11:24:19;51747.78;;;-145.06;38.42
6530;BME280;3298;42.688;23.366;2023-03-30T11:26:49;51745.75;;;-145.06;38.45
6530;BME280;3298;42.688;23.366;2023-03-30T11:29:31;51743.69;;;-145.06;38.05
6530;BME280;3298;42.688;23.366;2023-03-30T11:32:10;51762.13;;;-145.06;37.88
6530;BME280;3298;42.688;23.366;2023-03-30T11:34:52;51768.25;;;-145.06;37.05
6530;BME280;3298;42.688;23.366;2023-03-30T11:37:26;51764.16;;;-145.06;37.72
6530;BME280;3298;42.688;23.366;2023-03-30T11:39:59;51749.84;;;-145.06;37.38
6530;BME280;3298;42.688;23.366;2023-03-30T11:42:35;51749.84;;;-145.06;35.92
6530;BME280;3298;42.688;23.366;2023-03-30T11:45:08;51753.94;;;-145.06;36.75
6530;BME280;3298;42.688;23.366;2023-03-30T11:48:01;51766.22;;;-145.06;36.37
6530;BME280;3298;42.688;23.366;2023-03-30T11:50:51;51776.44;;;-145.06;36.72
6530;BME280;3298;42.688;23.366;2023-03-30T11:53:27;51733.47;;;-145.06;36.51
6530;BME280;3298;42.688;23.366;2023-03-30T11:56:04;51778.50;;;-145.06;36.08
6530;BME280;3298;42.688;23.366;2023-03-30T11:58:37;51778.50;;;-145.06;36.25
6530;BME280;3298;42.688;23.366;2023-03-30T12:01:32;51745.75;;;-145.06;35.78
6530;BME280;3298;42.688;23.366;2023-03-30T12:04:07;51739.59;;;-145.06;35.29
6530;BME280;3298;42.688;23.366;2023-03-30T12:06:37;51739.59;;;-145.06;36.06
6530;BME280;3298;42.688;23.366;2023-03-30T12:09:18;51764.16;;;-145.06;35.90
6530;BME280;3298;42.688;23.366;2023-03-30T12:11:48;51741.66;;;-145.06;35.64
6530;BME280;3298;42.688;23.366;2023-03-30T12:14:31;51782.59;;;-145.06;35.20
6530;BME280;3298;42.688;23.366;2023-03-30T12:17:04;51778.50;;;-145.06;35.36
6530;BME280;3298;42.688;23.366;2023-03-30T12:19:39;51758.03;;;-145.06;35.63
6530;BME280;3298;42.688;23.366;2023-03-30T12:22:13;51831.72;;;-145.06;35.18
6530;BME280;3298;42.688;23.366;2023-03-30T12:24:45;51733.47;;;-145.06;35.68
6530;BME280;3298;42.688;23.366;2023-03-30T12:27:13;51758.03;;;-145.06;35.57
6530;BME280;3298;42.688;23.366;2023-03-30T12:29:44;51745.75;;;-145.06;34.60
6530;BME280;3298;42.688;23.366;2023-03-30T12:32:29;51764.16;;;-145.06;34.83
6530;BME280;3298;42.688;23.366;2023-03-30T12:34:57;51747.78;;;-145.06;34.92
6530;BME280;3298;42.688;23.366;2023-03-30T12:37:27;51758.03;;;-145.06;34.29
6530;BME280;3298;42.688;23.366;2023-03-30T12:39:57;51846.03;;;-145.06;34.37
6530;BME280;3298;42.688;23.366;2023-03-30T12:42:31;51786.69;;;-145.06;34.63
6530;BME280;3298;42.688;23.366;2023-03-30T12:45:15;51780.53;;;-145.06;34.52
6530;BME280;3298;42.688;23.366;2023-03-30T12:48:16;51764.16;;;-145.06;35.43
6530;BME280;3298;42.688;23.366;2023-03-30T12:50:56;51758.03;;;-145.06;34.92
6530;BME280;3298;42.688;23.366;2023-03-30T12:56:33;51758.03;;;-145.06;35.31
6530;BME280;3298;42.688;23.366;2023-03-30T12:59:14;51731.41;;;-145.06;35.18
6530;BME280;3298;42.688;23.366;2023-03-30T13:01:54;51737.56;;;-145.06;34.99
6530;BME280;3298;42.688;23.366;2023-03-30T13:04:27;51749.84;;;-145.06;34.79
6530;BME280;3298;42.688;23.366;2023-03-30T13:06:58;51753.94;;;-145.06;34.87
6530;BME280;3298;42.688;23.366;2023-03-30T13:09:33;51762.13;;;-145.06;34.61
6530;BME280;3298;42.688;23.366;2023-03-30T13:12:31;51768.25;;;-145.06;34.29
6530;BME280;3298;42.688;23.366;2023-03-30T13:15:00;51745.75;;;-145.06;34.44
6530;BME280;3298;42.688;23.366;2023-03-30T13:17:46;51772.34;;;-145.06;33.79